This is the latest recevied weather packets stored in our database for station/object KD9ZDW. If no packets are shown the sender has not sent any weather packets the latest 10 day(s).
| Time | Temp. | Humidity | Pressure | Rain* | Wind** | Luminosity | Snow |
|---|---|---|---|---|---|---|---|
| 1777925209 | 25° C | 43% | 1004.4 hPa | 0 mm | - | 594 W/m² | - |
| 1777924906 | 25° C | 43% | 1004.4 hPa | 0 mm | - | 574 W/m² | - |
| 1777924601 | 25° C | 42% | 1004.8 hPa | 0 mm | - | 586 W/m² | - |
| 1777924298 | 24.44° C | 45% | 1004.8 hPa | 0 mm | - | 602 W/m² | - |
| 1777923995 | 23.89° C | 45% | 1004.8 hPa | 0 mm | - | 562 W/m² | - |
| 1777923691 | 24.44° C | 44% | 1005.1 hPa | 0 mm | - | 162 W/m² | - |
| 1777923387 | 24.44° C | 43% | 1005 hPa | 0 mm | - | 718 W/m² | - |
| 1777923086 | 25.56° C | 40% | 1004.9 hPa | 0 mm | - | 461 W/m² | - |
| 1777922783 | 24.44° C | 47% | 1005.1 hPa | 0 mm | - | 786 W/m² | - |
| 1777922481 | 24.44° C | 43% | 1004.9 hPa | 0 mm | - | 735 W/m² | - |
| 1777922179 | 24.44° C | 46% | 1005 hPa | 0 mm | - | 159 W/m² | - |
| 1777921875 | 23.89° C | 46% | 1004.9 hPa | 0 mm | - | 544 W/m² | - |
| 1777921571 | 24.44° C | 46% | 1004.9 hPa | 0 mm | - | 774 W/m² | - |
| 1777921268 | 23.89° C | 48% | 1005.3 hPa | 0 mm | - | 747 W/m² | - |
| 1777920964 | 23.89° C | 46% | 1005 hPa | 0 mm | - | 737 W/m² | - |
| 1777920661 | 24.44° C | 48% | 1005.1 hPa | 0 mm | - | 139 W/m² | - |
| 1777920357 | 24.44° C | 48% | 1005.1 hPa | 0 mm | - | 150 W/m² | - |
| 1777920052 | 24.44° C | 47% | 1005.2 hPa | 0 mm | - | 146 W/m² | - |
| 1777919749 | 23.33° C | 46% | 1005.5 hPa | 0 mm | - | 727 W/m² | - |
| 1777919448 | 23.89° C | 47% | 1005.3 hPa | 0 mm | - | 257 W/m² | - |
| 1777919144 | 23.89° C | 47% | 1005.3 hPa | 0 mm | - | 760 W/m² | - |
| 1777918842 | 23.89° C | 47% | 1005.4 hPa | 0 mm | - | 707 W/m² | - |
| 1777918539 | 23.89° C | 46% | 1005.3 hPa | 0 mm | - | 710 W/m² | - |
| 1777918237 | 23.33° C | 48% | 1005.3 hPa | 0 mm | - | 720 W/m² | - |
| 1777917935 | 23.33° C | 49% | 1005.5 hPa | 0 mm | - | 317 W/m² | - |
* Rain latest hour (hover to see other rain measurements)
** Current wind speed in m/s (hover to see current wind gust speed)